X  Sluiten METAR luchtvaart weer gegevens      EHAM Amsterdam Schiphol
Temperatuur
20°C Temperatuur
9°C Dauwpunt
49% Vochtigheid



Wind
39 KM/U
24 MPH
11 M/S
21 KTS



240°
WZW
Huidig weer

Wat bewolking Wat bewolking
Luchtdruk 1014.92 (hPa) - 29.97 (inHg)
Zicht 6.2 (mijl) - 10 (km)
Vliegveld
Vliegveld code EHAM

Locatie : Amsterdam Schiphol
Afstand: 25 (km)

Metar:
EHAM 031355Z 24021KT 210V270 9999 FEW030 20/09 Q1015 NOSIG

Tijd: 03-07-2020 15:55 CEST